createdAt,value
2018-11-25T00:01:10.329Z,100312.93
2018-11-25T00:03:40.324Z,100314.63
2018-11-25T00:06:10.313Z,100310.73
2018-11-25T00:08:40.344Z,100309.59
2018-11-25T00:11:10.712Z,100312.13
2018-11-25T00:13:40.579Z,100304.81
2018-11-25T00:16:10.899Z,100311.13
2018-11-25T00:18:40.715Z,100308.19
2018-11-25T00:21:10.657Z,100315.58
2018-11-25T00:23:40.684Z,100310.44
2018-11-25T00:26:10.608Z,100314.33
2018-11-25T00:28:40.688Z,100311.68
2018-11-25T00:31:10.679Z,100309.14
2018-11-25T00:33:40.591Z,100313.38
2018-11-25T00:36:10.644Z,100308.19
2018-11-25T00:38:40.965Z,100314.63
2018-11-25T00:41:10.931Z,100319.66
2018-11-25T00:43:41.170Z,100312.82
2018-11-25T00:46:11.456Z,100316.27
2018-11-25T00:48:41.485Z,100309.80
2018-11-25T00:51:11.514Z,100312.05
2018-11-25T00:53:41.502Z,100320.94
2018-11-25T00:56:11.356Z,100324.87
2018-11-25T00:58:41.558Z,100320.09
2018-11-25T01:01:11.647Z,100320.54
2018-11-25T01:03:41.759Z,100310.73
2018-11-25T01:06:11.550Z,100318.44
2018-11-25T01:08:41.502Z,100322.23
2018-11-25T01:11:11.455Z,100311.94
2018-11-25T01:13:41.405Z,100313.74
2018-11-25T01:16:11.343Z,100317.59
2018-11-25T01:18:41.309Z,100316.75
2018-11-25T01:21:11.240Z,100311.53
2018-11-25T01:23:41.065Z,100310.25
2018-11-25T01:26:11.130Z,100319.13
2018-11-25T01:28:41.033Z,100319.66
2018-11-25T01:31:10.971Z,100322.59
2018-11-25T01:33:40.893Z,100320.53
2018-11-25T01:36:10.764Z,100314.98
2018-11-25T01:38:40.976Z,100314.51
2018-11-25T01:41:10.842Z,100309.00
2018-11-25T01:43:40.755Z,100310.25
2018-11-25T01:46:10.742Z,100312.38
2018-11-25T01:48:40.576Z,100315.35
2018-11-25T01:51:10.419Z,100320.09
2018-11-25T01:53:41.462Z,100314.55
2018-11-25T01:56:11.416Z,100311.02
2018-11-25T01:58:41.607Z,100308.44
2018-11-25T02:01:11.651Z,100307.72
2018-11-25T02:03:41.480Z,100305.51
2018-11-25T02:06:11.578Z,100307.67
2018-11-25T02:08:41.536Z,100307.67
2018-11-25T02:11:11.478Z,100311.13
2018-11-25T02:13:42.549Z,100312.38
2018-11-25T02:16:12.545Z,100300.29
2018-11-25T02:18:42.545Z,100308.44
2018-11-25T02:21:12.376Z,100308.44
2018-11-25T02:23:42.329Z,100304.99
2018-11-25T02:26:12.466Z,100309.73
2018-11-25T02:28:42.462Z,100299.04
2018-11-25T02:31:12.458Z,100304.22
2018-11-25T02:33:42.441Z,100301.69
2018-11-25T02:36:12.575Z,100302.45
2018-11-25T02:38:42.607Z,100299.52
2018-11-25T02:41:12.606Z,100296.50
2018-11-25T02:43:42.575Z,100301.69
2018-11-25T02:46:12.472Z,100296.94
2018-11-25T02:48:42.714Z,100296.58
2018-11-25T02:51:12.663Z,100298.31
2018-11-25T02:53:42.630Z,100298.34
2018-11-25T02:56:12.677Z,100297.02
2018-11-25T02:58:42.608Z,100298.34
2018-11-25T03:01:12.632Z,100298.31
2018-11-25T03:03:42.613Z,100304.26
2018-11-25T03:06:12.658Z,100306.35
2018-11-25T03:08:42.536Z,100303.41
2018-11-25T03:11:12.434Z,100301.32
2018-11-25T03:13:43.349Z,100302.64
2018-11-25T03:16:13.480Z,100306.50
2018-11-25T03:18:43.552Z,100306.09
2018-11-25T03:21:13.575Z,100306.91
2018-11-25T03:23:43.460Z,100302.17
2018-11-25T03:26:13.475Z,100306.87
2018-11-25T03:28:43.272Z,100307.75
2018-11-25T03:31:13.286Z,100303.45
2018-11-25T03:33:43.278Z,100301.80
2018-11-25T03:36:13.265Z,100307.34
2018-11-25T03:38:43.139Z,100300.03
2018-11-25T03:41:13.122Z,100295.33
2018-11-25T03:43:43.156Z,100297.91
2018-11-25T03:46:13.332Z,100294.45
2018-11-25T03:48:58.432Z,100295.77
2018-11-25T03:51:28.403Z,100299.19
2018-11-25T03:53:58.347Z,100292.36
2018-11-25T03:56:28.184Z,100298.37
2018-11-25T03:58:58.147Z,100299.67
2018-11-25T04:01:28.165Z,100301.39
2018-11-25T04:03:58.050Z,100298.37
2018-11-25T04:06:28.136Z,100303.93
2018-11-25T04:08:58.077Z,100300.11
2018-11-25T04:11:28.016Z,100302.23
2018-11-25T04:13:57.988Z,100305.18
2018-11-25T04:16:27.997Z,100306.87
2018-11-25T04:18:58.242Z,100301.72
2018-11-25T04:21:28.370Z,100301.32
2018-11-25T04:23:58.329Z,100303.93
2018-11-25T04:26:28.286Z,100312.56
2018-11-25T04:28:58.137Z,100317.27
2018-11-25T04:31:28.272Z,100312.13
2018-11-25T04:33:58.173Z,100315.14
2018-11-25T04:36:28.002Z,100314.70
2018-11-25T04:38:57.960Z,100313.45
2018-11-25T04:41:27.888Z,100310.84
2018-11-25T04:43:58.004Z,100313.52
2018-11-25T04:46:27.940Z,100310.88
2018-11-25T04:48:57.741Z,100305.28
2018-11-25T04:51:27.850Z,100313.84
2018-11-25T04:53:57.796Z,100312.56
2018-11-25T04:56:27.827Z,100316.86
2018-11-25T04:58:57.787Z,100317.70
2018-11-25T05:01:27.765Z,100319.88
2018-11-25T05:03:57.801Z,100317.27
2018-11-25T05:06:28.601Z,100317.30
2018-11-25T05:08:58.616Z,100311.35
2018-11-25T05:11:28.551Z,100310.06
2018-11-25T05:13:58.521Z,100311.35
2018-11-25T05:16:28.378Z,100306.65
2018-11-25T05:18:58.223Z,100301.95
2018-11-25T05:21:28.169Z,100301.06
2018-11-25T05:23:57.975Z,100294.23
2018-11-25T05:26:28.000Z,100301.95
2018-11-25T05:28:57.967Z,100305.36
2018-11-25T05:31:28.109Z,100300.66
2018-11-25T05:33:58.078Z,100296.80
2018-11-25T05:36:28.174Z,100299.38
2018-11-25T05:38:58.186Z,100299.81
2018-11-25T05:41:28.044Z,100299.81
2018-11-25T05:43:57.969Z,100302.35
2018-11-25T05:46:27.913Z,100301.51
2018-11-25T05:48:57.957Z,100300.66
2018-11-25T05:51:27.963Z,100292.55
2018-11-25T05:53:57.959Z,100294.23
2018-11-25T05:56:28.561Z,100299.81
2018-11-25T05:58:58.533Z,100301.51
2018-11-25T06:01:28.389Z,100304.08
2018-11-25T06:03:58.286Z,100301.47
2018-11-25T06:06:28.593Z,100300.99
2018-11-25T06:08:58.424Z,100295.08
2018-11-25T06:11:28.385Z,100295.08
2018-11-25T06:13:58.332Z,100295.52
2018-11-25T06:16:28.310Z,100302.75
2018-11-25T06:18:58.240Z,100304.08
2018-11-25T06:21:28.089Z,100300.66
2018-11-25T06:23:58.044Z,100304.89
2018-11-25T06:26:28.009Z,100296.77
2018-11-25T06:28:57.978Z,100295.89
2018-11-25T06:31:28.121Z,100297.20
2018-11-25T06:33:57.683Z,100293.80
2018-11-25T06:36:27.537Z,100294.23
2018-11-25T06:38:57.432Z,100295.52
2018-11-25T06:41:33.845Z,100302.34
2018-11-25T06:43:57.464Z,100304.08
2018-11-25T06:46:27.329Z,100299.38
2018-11-25T06:48:57.193Z,100299.78
2018-11-25T06:51:27.175Z,100309.66
2018-11-25T06:53:57.177Z,100311.79
2018-11-25T06:56:27.494Z,100312.23
2018-11-25T06:58:57.150Z,100314.80
2018-11-25T07:01:27.116Z,100322.92
2018-11-25T07:03:58.088Z,100328.95
2018-11-25T07:06:28.105Z,100319.03
2018-11-25T07:08:58.082Z,100323.30
2018-11-25T07:11:28.030Z,100321.16
2018-11-25T07:13:58.997Z,100322.05
2018-11-25T07:16:29.008Z,100315.20
2018-11-25T07:18:59.064Z,100316.49
2018-11-25T07:21:29.238Z,100318.59
2018-11-25T07:23:59.314Z,100318.59
2018-11-25T07:26:29.535Z,100315.65
2018-11-25T07:28:59.539Z,100328.87
2018-11-25T07:31:29.721Z,100327.19
2018-11-25T07:33:59.676Z,100321.16
2018-11-25T07:36:29.943Z,100329.76
2018-11-25T07:38:59.883Z,100326.30
2018-11-25T07:41:31.121Z,100328.44
2018-11-25T07:44:01.121Z,100331.01
2018-11-25T07:46:31.088Z,100328.80
2018-11-25T07:49:01.006Z,100329.25
2018-11-25T07:51:30.901Z,100327.59
2018-11-25T07:54:00.832Z,100333.14
2018-11-25T07:56:30.653Z,100330.97
2018-11-25T07:59:00.556Z,100328.80
2018-11-25T08:01:30.824Z,100326.23
2018-11-25T08:04:00.923Z,100327.08
2018-11-25T08:06:30.901Z,100325.79
2018-11-25T08:09:00.783Z,100325.35
2018-11-25T08:11:30.691Z,100322.37
2018-11-25T08:14:00.541Z,100327.89
2018-11-25T08:16:30.408Z,100321.45
2018-11-25T08:19:00.625Z,100327.85
2018-11-25T08:21:30.618Z,100323.14
2018-11-25T08:24:00.613Z,100326.16
2018-11-25T08:26:30.555Z,100323.59
2018-11-25T08:29:00.798Z,100327.45
2018-11-25T08:31:30.853Z,100331.70
2018-11-25T08:34:00.835Z,100328.29
2018-11-25T08:36:30.740Z,100333.00
2018-11-25T08:39:00.682Z,100333.84
2018-11-25T08:41:30.658Z,100330.42
2018-11-25T08:44:00.629Z,100328.66
2018-11-25T08:46:30.597Z,100331.67
2018-11-25T08:49:00.500Z,100325.64
2018-11-25T08:51:30.427Z,100318.81
2018-11-25T08:54:00.709Z,100317.52
2018-11-25T08:56:30.678Z,100314.95
2018-11-25T08:59:00.552Z,100313.55
2018-11-25T09:01:30.709Z,100308.04
2018-11-25T09:04:00.903Z,100303.81
2018-11-25T09:06:31.037Z,100302.02
2018-11-25T09:09:01.278Z,100301.49
2018-11-25T09:11:31.383Z,100298.92
2018-11-25T09:14:01.333Z,100304.47
2018-11-25T09:16:31.348Z,100304.02
2018-11-25T09:19:01.232Z,100305.27
2018-11-25T09:21:31.104Z,100307.41
2018-11-25T09:24:01.294Z,100310.05
2018-11-25T09:26:31.246Z,100314.31
2018-11-25T09:29:01.137Z,100317.25
2018-11-25T09:31:31.215Z,100315.97
2018-11-25T09:34:01.302Z,100312.52
2018-11-25T09:36:31.434Z,100319.06
2018-11-25T09:39:01.428Z,100316.48
2018-11-25T09:41:31.775Z,100316.85
2018-11-25T09:44:01.770Z,100320.67
2018-11-25T09:46:31.662Z,100324.09
2018-11-25T09:49:01.608Z,100321.16
2018-11-25T09:51:31.387Z,100322.00
2018-11-25T09:54:01.966Z,100328.39
2018-11-25T09:56:31.922Z,100327.55
2018-11-25T09:59:02.003Z,100323.61
2018-11-25T10:01:32.016Z,100323.20
2018-11-25T10:04:02.068Z,100327.55
2018-11-25T10:06:32.252Z,100326.59
2018-11-25T10:09:02.431Z,100321.44
2018-11-25T10:11:32.559Z,100321.00
2018-11-25T10:14:02.494Z,100314.60
2018-11-25T10:16:32.472Z,100313.72
2018-11-25T10:19:02.357Z,100309.46
2018-11-25T10:21:32.441Z,100307.28
2018-11-25T10:24:02.191Z,100299.17
2018-11-25T10:26:32.059Z,100299.61
2018-11-25T10:29:02.089Z,100294.42
2018-11-25T10:31:32.069Z,100300.00
2018-11-25T10:34:01.886Z,100299.00
2018-11-25T10:36:31.978Z,100299.48
2018-11-25T10:39:02.219Z,100290.48
2018-11-25T10:41:33.195Z,100290.52
2018-11-25T10:44:03.370Z,100289.20
2018-11-25T10:46:33.501Z,100294.34
2018-11-25T10:49:03.570Z,100293.41
2018-11-25T10:51:35.540Z,100299.45
2018-11-25T10:54:05.642Z,100292.98
2018-11-25T10:56:35.563Z,100287.78
2018-11-25T10:59:06.343Z,100286.38
2018-11-25T11:01:54.060Z,100286.41
2018-11-25T11:04:29.147Z,100280.06
2018-11-25T11:07:07.354Z,100276.12
2018-11-25T11:09:37.109Z,100278.20
2018-11-25T11:12:07.375Z,100273.06
2018-11-25T11:14:37.736Z,100273.95
2018-11-25T11:17:07.604Z,100279.53
2018-11-25T11:19:37.417Z,100277.41
2018-11-25T11:22:10.241Z,100272.70
2018-11-25T11:24:44.073Z,100277.41
2018-11-25T11:27:13.952Z,100279.02
2018-11-25T11:29:43.873Z,100279.45
2018-11-25T11:32:13.845Z,100272.17
2018-11-25T11:34:44.216Z,100278.57
2018-11-25T11:37:14.144Z,100278.17
2018-11-25T11:39:44.282Z,100277.19
2018-11-25T11:42:14.356Z,100279.77
2018-11-25T11:44:44.278Z,100285.31
2018-11-25T11:47:14.559Z,100283.59
2018-11-25T11:49:44.616Z,100285.77
2018-11-25T11:52:14.596Z,100287.85
2018-11-25T11:54:44.781Z,100288.77
2018-11-25T11:57:14.679Z,100288.29
2018-11-25T11:59:45.291Z,100285.36
2018-11-25T12:02:15.350Z,100289.62
2018-11-25T12:04:45.802Z,100288.81
2018-11-25T12:07:16.054Z,100288.86
2018-11-25T12:09:46.061Z,100286.77
2018-11-25T12:12:16.854Z,100280.82
2018-11-25T12:14:50.181Z,100280.34
2018-11-25T12:17:29.024Z,100282.44
2018-11-25T12:19:58.992Z,100277.36
2018-11-25T12:22:44.692Z,100281.58
2018-11-25T12:25:18.003Z,100284.69
2018-11-25T12:27:47.994Z,100283.76
2018-11-25T12:30:18.452Z,100282.47
2018-11-25T12:32:50.261Z,100282.91
2018-11-25T12:35:20.658Z,100285.89
2018-11-25T12:37:50.737Z,100284.16
2018-11-25T12:40:23.896Z,100281.22
2018-11-25T12:42:55.906Z,100275.72
2018-11-25T12:45:26.346Z,100278.30
2018-11-25T12:47:57.400Z,100279.17
2018-11-25T12:50:28.029Z,100282.19
2018-11-25T12:52:59.500Z,100280.47
2018-11-25T12:55:32.082Z,100282.68
2018-11-25T12:58:02.096Z,100280.95
2018-11-25T13:00:39.179Z,100282.68
2018-11-25T13:03:10.949Z,100274.16
2018-11-25T13:05:45.987Z,100272.87
2018-11-25T13:08:12.933Z,100267.33
2018-11-25T13:10:44.182Z,100276.77
2018-11-25T13:13:14.326Z,100273.27
2018-11-25T13:15:44.469Z,100268.25
2018-11-25T13:18:14.616Z,100271.22
2018-11-25T13:20:44.684Z,100268.65
2018-11-25T13:23:15.002Z,100268.65
2018-11-25T13:25:45.126Z,100257.87
2018-11-25T13:28:18.567Z,100258.72
2018-11-25T13:30:49.557Z,100254.01
2018-11-25T13:33:31.995Z,100251.44
2018-11-25T13:36:02.135Z,100252.68
2018-11-25T13:38:32.512Z,100242.88
2018-11-25T13:41:02.702Z,100239.02
2018-11-25T13:43:32.767Z,100233.91
2018-11-25T13:46:02.830Z,100235.20
2018-11-25T13:48:32.955Z,100240.34
2018-11-25T13:54:01.064Z,100240.75
2018-11-25T13:56:31.227Z,100235.25
2018-11-25T13:59:21.638Z,100233.11
2018-11-25T14:05:01.861Z,100226.23
2018-11-25T14:07:32.238Z,100232.23
2018-11-25T14:10:02.331Z,100226.19
2018-11-25T14:12:33.096Z,100228.81
2018-11-25T14:18:29.009Z,100230.14
2018-11-25T14:20:59.044Z,100223.30
2018-11-25T14:23:29.018Z,100222.02
2018-11-25T14:26:02.201Z,100225.03
2018-11-25T14:28:32.289Z,100227.96
2018-11-25T14:31:02.427Z,100228.48
2018-11-25T14:33:32.719Z,100227.20
2018-11-25T14:36:02.856Z,100222.02
2018-11-25T14:38:34.994Z,100218.72
2018-11-25T14:41:05.241Z,100223.83
2018-11-25T14:43:36.204Z,100228.45
2018-11-25T14:46:06.345Z,100223.34
2018-11-25T14:48:36.517Z,100224.63
2018-11-25T14:51:07.807Z,100225.52
2018-11-25T14:53:39.064Z,100222.58
2018-11-25T14:56:09.205Z,100223.43
2018-11-25T14:58:39.268Z,100222.58
2018-11-25T15:01:09.215Z,100220.81
2018-11-25T15:03:39.310Z,100228.05
2018-11-25T15:06:09.432Z,100232.75
2018-11-25T15:08:39.474Z,100234.13
2018-11-25T15:14:09.981Z,100234.44
2018-11-25T15:16:42.214Z,100235.25
2018-11-25T15:19:12.309Z,100240.83
2018-11-25T15:21:42.707Z,100246.30
2018-11-25T15:27:22.934Z,100235.28
2018-11-25T15:29:53.135Z,100231.47
2018-11-25T15:32:24.999Z,100235.20
2018-11-25T15:34:55.079Z,100232.66
2018-11-25T15:37:26.558Z,100231.47
2018-11-25T15:39:56.885Z,100234.84
2018-11-25T15:42:27.628Z,100230.02
2018-11-25T15:44:59.362Z,100230.41
2018-11-25T15:47:30.334Z,100226.63
2018-11-25T15:50:00.598Z,100222.33
2018-11-25T15:52:30.689Z,100219.71
2018-11-25T15:55:00.804Z,100225.31
2018-11-25T15:57:30.869Z,100224.50
2018-11-25T16:00:00.873Z,100214.20
2018-11-25T16:02:42.049Z,100216.38
2018-11-25T16:06:29.666Z,100216.78
2018-11-25T16:09:00.006Z,100217.67
2018-11-25T16:11:30.423Z,100222.86
2018-11-25T16:14:00.272Z,100227.13
2018-11-25T16:16:30.877Z,100224.14
2018-11-25T16:19:00.832Z,100227.08
2018-11-25T16:21:30.859Z,100225.39
2018-11-25T16:24:00.798Z,100215.95
2018-11-25T16:26:34.464Z,100210.40
2018-11-25T16:29:17.705Z,100211.69
2018-11-25T16:31:47.800Z,100215.95
2018-11-25T16:34:18.416Z,100215.09
2018-11-25T16:36:48.461Z,100211.64
2018-11-25T16:39:18.312Z,100210.00
2018-11-25T16:41:48.260Z,100210.88
2018-11-25T16:44:18.935Z,100199.13
2018-11-25T16:46:48.933Z,100199.66
2018-11-25T16:49:18.984Z,100197.94
2018-11-25T16:51:48.932Z,100198.77
2018-11-25T16:54:19.011Z,100194.08
2018-11-25T16:56:49.069Z,100194.52
2018-11-25T16:59:19.079Z,100195.84
2018-11-25T17:01:49.106Z,100199.21
2018-11-25T17:04:19.119Z,100202.23
2018-11-25T17:06:53.338Z,100194.52
2018-11-25T17:09:23.486Z,100203.52
2018-11-25T17:11:53.465Z,100200.02
2018-11-25T17:14:23.531Z,100195.76
2018-11-25T17:16:53.538Z,100205.66
2018-11-25T17:19:23.432Z,100206.09
2018-11-25T17:21:53.495Z,100212.44
2018-11-25T17:24:23.542Z,100212.44
2018-11-25T17:26:53.374Z,100210.75
2018-11-25T17:29:23.286Z,100214.97
2018-11-25T17:31:53.328Z,100219.28
2018-11-25T17:34:23.388Z,100217.59
2018-11-25T17:36:53.379Z,100218.03
2018-11-25T17:39:23.671Z,100213.33
2018-11-25T17:41:53.538Z,100219.72
2018-11-25T17:44:23.436Z,100226.59
2018-11-25T17:46:53.459Z,100224.46
2018-11-25T17:49:23.449Z,100228.28
2018-11-25T17:51:53.489Z,100224.91
2018-11-25T17:54:23.573Z,100222.73
2018-11-25T17:56:53.600Z,100224.02
2018-11-25T17:59:23.676Z,100233.03
2018-11-25T18:01:53.725Z,100230.00
2018-11-25T18:04:24.036Z,100226.98
2018-11-25T18:06:53.978Z,100228.72
2018-11-25T18:09:24.107Z,100229.52
2018-11-25T18:11:54.092Z,100229.56
2018-11-25T18:14:24.061Z,100221.41
2018-11-25T18:16:54.092Z,100231.20
2018-11-25T18:19:26.001Z,100227.80
2018-11-25T18:22:01.000Z,100228.64
2018-11-25T18:24:30.987Z,100240.22
2018-11-25T18:27:03.233Z,100244.91
2018-11-25T18:29:33.200Z,100240.61
2018-11-25T18:32:03.217Z,100238.04
2018-11-25T18:34:33.406Z,100235.88
2018-11-25T18:37:03.174Z,100231.61
2018-11-25T18:39:33.127Z,100231.16
2018-11-25T18:42:03.141Z,100230.77
2018-11-25T18:44:33.026Z,100231.13
2018-11-25T18:47:03.048Z,100229.39
2018-11-25T18:49:34.054Z,100237.11
2018-11-25T18:52:05.332Z,100236.23
2018-11-25T18:54:34.152Z,100237.52
2018-11-25T18:57:04.345Z,100235.78
2018-11-25T18:59:34.211Z,100233.20
2018-11-25T19:02:09.821Z,100239.56
2018-11-25T19:04:39.918Z,100231.39
2018-11-25T19:07:09.998Z,100232.68
2018-11-25T19:09:39.821Z,100224.12
2018-11-25T19:12:09.659Z,100229.22
2018-11-25T19:14:39.713Z,100222.83
2018-11-25T19:17:09.726Z,100228.81
2018-11-25T19:19:39.654Z,100224.47
2018-11-25T19:22:09.151Z,100220.61
2018-11-25T19:24:39.371Z,100221.85
2018-11-25T19:27:09.468Z,100219.72
2018-11-25T19:29:39.459Z,100220.13
2018-11-25T19:32:09.405Z,100224.82
2018-11-25T19:34:39.427Z,100222.69
2018-11-25T19:37:09.409Z,100219.67
2018-11-25T19:39:40.201Z,100212.75
2018-11-25T19:42:10.171Z,100206.72
2018-11-25T19:44:40.334Z,100208.39
2018-11-25T19:47:10.198Z,100210.58
2018-11-25T19:49:40.143Z,100204.13
2018-11-25T19:52:09.991Z,100200.72
2018-11-25T19:54:40.048Z,100189.97
2018-11-25T19:57:10.029Z,100198.54
2018-11-25T19:59:40.011Z,100189.93
2018-11-25T20:02:09.807Z,100192.95
2018-11-25T20:04:39.843Z,100192.91
2018-11-25T20:07:10.048Z,100189.89
2018-11-25T20:09:40.242Z,100193.74
2018-11-25T20:12:10.273Z,100201.03
2018-11-25T20:14:40.207Z,100202.31
2018-11-25T20:17:15.209Z,100215.18
2018-11-25T20:19:45.296Z,100210.89
2018-11-25T20:22:20.291Z,100206.61
2018-11-25T20:24:50.315Z,100201.86
2018-11-25T20:27:25.423Z,100203.55
2018-11-25T20:29:55.493Z,100198.41
2018-11-25T20:32:30.862Z,100194.94
2018-11-25T20:35:00.895Z,100197.06
2018-11-25T20:37:31.329Z,100190.19
2018-11-25T20:40:01.310Z,100193.61
2018-11-25T20:42:31.258Z,100194.48
2018-11-25T20:45:01.267Z,100189.25
2018-11-25T20:47:31.418Z,100189.66
2018-11-25T20:50:01.342Z,100190.09
2018-11-25T20:52:36.473Z,100186.63
2018-11-25T20:55:07.759Z,100195.69
2018-11-25T20:57:37.831Z,100192.17
2018-11-25T21:00:15.070Z,100190.00
2018-11-25T21:02:43.888Z,100190.40
2018-11-25T21:05:15.653Z,100189.11
2018-11-25T21:07:45.789Z,100183.11
2018-11-25T21:10:18.244Z,100193.36
2018-11-25T21:12:50.145Z,100189.09
2018-11-25T21:15:20.113Z,100192.52
2018-11-25T21:17:50.182Z,100197.58
2018-11-25T21:20:26.409Z,100200.14
2018-11-25T21:22:58.417Z,100196.30
2018-11-25T21:25:28.332Z,100197.04
2018-11-25T21:27:58.327Z,100193.17
2018-11-25T21:30:28.454Z,100191.44
2018-11-25T21:32:59.181Z,100193.56
2018-11-25T21:35:29.184Z,100191.83
2018-11-25T21:37:59.507Z,100201.64
2018-11-25T21:40:29.567Z,100200.84
2018-11-25T21:42:59.666Z,100197.33
2018-11-25T21:45:30.323Z,100198.52
2018-11-25T21:48:01.486Z,100199.02
2018-11-25T21:50:31.431Z,100195.49
2018-11-25T21:53:01.404Z,100196.84
2018-11-25T21:55:31.402Z,100196.39
2018-11-25T21:58:01.529Z,100186.09
2018-11-25T22:00:31.602Z,100193.36
2018-11-25T22:03:01.526Z,100195.06
2018-11-25T22:05:31.438Z,100183.81
2018-11-25T22:08:17.216Z,100181.62
2018-11-25T22:10:47.013Z,100186.78
2018-11-25T22:13:17.052Z,100184.64
2018-11-25T22:15:46.970Z,100203.07
2018-11-25T22:18:16.872Z,100199.66
2018-11-25T22:20:47.001Z,100196.25
2018-11-25T22:23:17.015Z,100199.66
2018-11-25T22:25:46.982Z,100206.39
2018-11-25T22:28:17.946Z,100202.08
2018-11-25T22:30:48.007Z,100202.13
2018-11-25T22:33:18.076Z,100200.41
2018-11-25T22:35:48.062Z,100196.88
2018-11-25T22:38:17.872Z,100208.97
2018-11-25T22:40:47.891Z,100209.36
2018-11-25T22:43:17.906Z,100209.36
2018-11-25T22:45:47.884Z,100211.94
2018-11-25T22:48:17.737Z,100210.66
2018-11-25T22:50:47.962Z,100212.34
2018-11-25T22:53:18.024Z,100211.94
2018-11-25T22:55:47.921Z,100210.21
2018-11-25T22:58:18.060Z,100204.61
2018-11-25T23:00:53.087Z,100205.55
2018-11-25T23:03:23.219Z,100193.41
2018-11-25T23:06:09.584Z,100193.45
2018-11-25T23:08:39.485Z,100199.00
2018-11-25T23:11:09.329Z,100200.29
2018-11-25T23:13:40.079Z,100205.84
2018-11-25T23:16:10.167Z,100200.29
2018-11-25T23:18:40.149Z,100207.13
2018-11-25T23:21:10.140Z,100207.14
2018-11-25T23:23:40.177Z,100203.81
2018-11-25T23:26:10.230Z,100209.36
2018-11-25T23:28:40.233Z,100205.00
2018-11-25T23:31:10.228Z,100205.45
2018-11-25T23:33:40.222Z,100207.19
2018-11-25T23:36:10.240Z,100215.80
2018-11-25T23:38:40.208Z,100206.34
2018-11-25T23:41:10.124Z,100215.80
2018-11-25T23:43:40.117Z,100210.66
2018-11-25T23:46:10.082Z,100215.77
2018-11-25T23:48:40.248Z,100215.80
2018-11-25T23:51:10.289Z,100212.34
2018-11-25T23:53:40.276Z,100216.25
2018-11-25T23:56:10.340Z,100210.66
2018-11-25T23:58:40.233Z,100218.38
